Terminal Aerodrome Forecast
Issued by NWS

Home | Current Version | Previous Version | Text Only | Print | Product List | Glossary On
Versions: 1 2 3 4 5 6 7 8 9 10 11 12 13 14 15 16 17 18 19 20 21 22 23 24 25 26 27
000
FTUS42 KCAE 241100 RRA
TAFOGB
TAF
KOGB 241145Z 2412/2512 22008KT P6SM VCSH BKN009 OVC015
     FM241700 23014G24KT P6SM BKN015
     FM242100 24013G20KT P6SM SCT015 BKN035
     FM242300 26005KT P6SM OVC050
     FM250500 29005KT P6SM OVC025=

USA.gov is the U.S. government's official web portal to all federal, state and local government web resources and services.